L'gov, Russia
Current Conditions -  °F | °C
As of 5:00 AM on Monday 22 Dec 2014 (Local Time) from UUOB Reporting Station
Broken Clouds Broken Clouds  
Wind Chill: 24°   Ceiling: 1000
Heat Index: 34°   Visibility: 4mi
Dew Point: 32°   Wind: 13mph
Humidity: 93%   Direction: 260°W
Pressure: 29.74"   Gusts: NA
Location:  51.65°N, 35.28°E
Report Text: UUOB 220200Z 26006MPS 7000 BKN010 01/00 Q1007 29290057 NOSIG
Loading
Personal Weather Stations






























Interactive Weather Map New forecast layout! Learn more

10-Day Weather Forecast

Advertisements
Track Severe Weather on mobile